sensor_id;sensor_type;location;lat;lon;timestamp;temperature;humidity
66140;DHT22;52945;51.908;8.364;2023-04-25T00:01:55;9.50;67.40
66140;DHT22;52945;51.908;8.364;2023-04-25T00:04:56;9.50;67.20
66140;DHT22;52945;51.908;8.364;2023-04-25T00:07:58;9.50;67.40
66140;DHT22;52945;51.908;8.364;2023-04-25T00:11:00;9.50;67.50
66140;DHT22;52945;51.908;8.364;2023-04-25T00:14:01;9.40;67.90
66140;DHT22;52945;51.908;8.364;2023-04-25T00:17:02;9.50;68.30
66140;DHT22;52945;51.908;8.364;2023-04-25T00:20:05;9.50;68.60
66140;DHT22;52945;51.908;8.364;2023-04-25T00:23:06;9.50;68.40
66140;DHT22;52945;51.908;8.364;2023-04-25T00:26:08;9.50;68.30
66140;DHT22;52945;51.908;8.364;2023-04-25T00:29:08;9.50;68.50
66140;DHT22;52945;51.908;8.364;2023-04-25T00:32:09;9.50;68.50
66140;DHT22;52945;51.908;8.364;2023-04-25T00:35:10;9.50;68.60
66140;DHT22;52945;51.908;8.364;2023-04-25T00:38:10;9.30;68.70
66140;DHT22;52945;51.908;8.364;2023-04-25T00:41:12;9.40;68.80
66140;DHT22;52945;51.908;8.364;2023-04-25T00:44:12;9.50;68.90
66140;DHT22;52945;51.908;8.364;2023-04-25T00:47:13;9.50;68.90
66140;DHT22;52945;51.908;8.364;2023-04-25T00:50:15;9.50;68.90
66140;DHT22;52945;51.908;8.364;2023-04-25T00:53:15;9.50;69.10
66140;DHT22;52945;51.908;8.364;2023-04-25T00:56:16;9.40;69.10
66140;DHT22;52945;51.908;8.364;2023-04-25T00:59:19;9.40;69.30
66140;DHT22;52945;51.908;8.364;2023-04-25T01:02:20;9.40;69.40
66140;DHT22;52945;51.908;8.364;2023-04-25T01:05:21;9.40;69.70
66140;DHT22;52945;51.908;8.364;2023-04-25T01:08:24;9.30;70.00
66140;DHT22;52945;51.908;8.364;2023-04-25T01:11:27;9.30;70.30
66140;DHT22;52945;51.908;8.364;2023-04-25T01:14:28;9.40;70.40
66140;DHT22;52945;51.908;8.364;2023-04-25T01:17:30;9.30;70.70
66140;DHT22;52945;51.908;8.364;2023-04-25T01:20:31;9.40;71.00
66140;DHT22;52945;51.908;8.364;2023-04-25T01:23:32;9.30;71.00
66140;DHT22;52945;51.908;8.364;2023-04-25T01:26:34;9.30;71.30
66140;DHT22;52945;51.908;8.364;2023-04-25T01:29:35;9.30;71.60
66140;DHT22;52945;51.908;8.364;2023-04-25T01:32:36;9.30;72.10
66140;DHT22;52945;51.908;8.364;2023-04-25T01:35:40;9.20;72.30
66140;DHT22;52945;51.908;8.364;2023-04-25T01:38:41;9.20;72.80
66140;DHT22;52945;51.908;8.364;2023-04-25T01:41:42;9.20;72.70
66140;DHT22;52945;51.908;8.364;2023-04-25T01:44:43;9.20;72.90
66140;DHT22;52945;51.908;8.364;2023-04-25T01:47:44;9.20;73.00
66140;DHT22;52945;51.908;8.364;2023-04-25T01:50:49;9.20;73.20
66140;DHT22;52945;51.908;8.364;2023-04-25T01:53:50;9.20;73.40
66140;DHT22;52945;51.908;8.364;2023-04-25T01:56:51;9.10;73.60
66140;DHT22;52945;51.908;8.364;2023-04-25T01:59:55;9.10;73.70
66140;DHT22;52945;51.908;8.364;2023-04-25T02:02:58;9.20;73.90
66140;DHT22;52945;51.908;8.364;2023-04-25T02:05:59;9.20;74.10
66140;DHT22;52945;51.908;8.364;2023-04-25T02:08:59;9.20;74.20
66140;DHT22;52945;51.908;8.364;2023-04-25T02:12:00;9.20;74.30
66140;DHT22;52945;51.908;8.364;2023-04-25T02:15:00;9.10;74.50
66140;DHT22;52945;51.908;8.364;2023-04-25T02:18:01;9.20;74.50
66140;DHT22;52945;51.908;8.364;2023-04-25T02:21:02;9.20;74.60
66140;DHT22;52945;51.908;8.364;2023-04-25T02:24:03;9.10;74.70
66140;DHT22;52945;51.908;8.364;2023-04-25T02:27:04;9.10;74.90
66140;DHT22;52945;51.908;8.364;2023-04-25T02:30:05;9.10;75.10
66140;DHT22;52945;51.908;8.364;2023-04-25T02:33:06;9.10;75.40
66140;DHT22;52945;51.908;8.364;2023-04-25T02:36:07;9.10;75.70
66140;DHT22;52945;51.908;8.364;2023-04-25T02:39:08;9.10;75.60
66140;DHT22;52945;51.908;8.364;2023-04-25T02:42:08;9.10;76.00
66140;DHT22;52945;51.908;8.364;2023-04-25T02:45:09;9.10;76.00
66140;DHT22;52945;51.908;8.364;2023-04-25T02:48:10;9.10;76.00
66140;DHT22;52945;51.908;8.364;2023-04-25T02:51:10;9.10;75.90
66140;DHT22;52945;51.908;8.364;2023-04-25T02:54:11;9.10;75.90
66140;DHT22;52945;51.908;8.364;2023-04-25T02:57:12;9.10;76.10
66140;DHT22;52945;51.908;8.364;2023-04-25T03:00:13;9.10;76.10
66140;DHT22;52945;51.908;8.364;2023-04-25T03:03:14;9.10;76.00
66140;DHT22;52945;51.908;8.364;2023-04-25T03:06:17;9.10;76.10
66140;DHT22;52945;51.908;8.364;2023-04-25T03:09:19;9.10;76.10
66140;DHT22;52945;51.908;8.364;2023-04-25T03:12:19;9.20;76.20
66140;DHT22;52945;51.908;8.364;2023-04-25T03:15:20;9.10;76.20
66140;DHT22;52945;51.908;8.364;2023-04-25T03:18:20;9.20;76.20
66140;DHT22;52945;51.908;8.364;2023-04-25T03:21:21;9.20;76.20
66140;DHT22;52945;51.908;8.364;2023-04-25T03:24:21;9.20;76.10
66140;DHT22;52945;51.908;8.364;2023-04-25T03:27:22;9.30;76.10
66140;DHT22;52945;51.908;8.364;2023-04-25T03:30:23;9.30;76.00
66140;DHT22;52945;51.908;8.364;2023-04-25T03:33:24;9.20;76.10
66140;DHT22;52945;51.908;8.364;2023-04-25T03:36:24;9.30;76.00
66140;DHT22;52945;51.908;8.364;2023-04-25T03:39:25;9.30;76.00
66140;DHT22;52945;51.908;8.364;2023-04-25T03:42:25;9.20;75.90
66140;DHT22;52945;51.908;8.364;2023-04-25T03:45:26;9.20;75.90
66140;DHT22;52945;51.908;8.364;2023-04-25T03:48:27;9.20;75.70
66140;DHT22;52945;51.908;8.364;2023-04-25T03:51:28;9.20;75.70
66140;DHT22;52945;51.908;8.364;2023-04-25T03:54:28;9.20;75.60
66140;DHT22;52945;51.908;8.364;2023-04-25T03:57:29;9.20;75.70
66140;DHT22;52945;51.908;8.364;2023-04-25T04:00:30;9.20;75.60
66140;DHT22;52945;51.908;8.364;2023-04-25T04:03:30;9.20;75.40
66140;DHT22;52945;51.908;8.364;2023-04-25T04:06:32;9.20;75.30
66140;DHT22;52945;51.908;8.364;2023-04-25T04:09:33;9.20;75.40
66140;DHT22;52945;51.908;8.364;2023-04-25T04:12:34;9.20;75.40
66140;DHT22;52945;51.908;8.364;2023-04-25T04:15:34;9.10;75.30
66140;DHT22;52945;51.908;8.364;2023-04-25T04:18:35;9.10;75.20
66140;DHT22;52945;51.908;8.364;2023-04-25T04:21:36;9.20;75.00
66140;DHT22;52945;51.908;8.364;2023-04-25T04:24:36;9.20;75.00
66140;DHT22;52945;51.908;8.364;2023-04-25T04:27:37;9.20;75.00
66140;DHT22;52945;51.908;8.364;2023-04-25T04:30:38;9.20;74.70
66140;DHT22;52945;51.908;8.364;2023-04-25T04:33:39;9.10;74.70
66140;DHT22;52945;51.908;8.364;2023-04-25T04:36:40;9.10;74.50
66140;DHT22;52945;51.908;8.364;2023-04-25T04:39:41;9.10;74.40
66140;DHT22;52945;51.908;8.364;2023-04-25T04:42:43;9.10;74.30
66140;DHT22;52945;51.908;8.364;2023-04-25T04:45:43;9.10;74.30
66140;DHT22;52945;51.908;8.364;2023-04-25T04:48:44;9.10;74.00
66140;DHT22;52945;51.908;8.364;2023-04-25T04:51:45;9.00;73.90
66140;DHT22;52945;51.908;8.364;2023-04-25T04:54:47;9.10;74.10
66140;DHT22;52945;51.908;8.364;2023-04-25T04:57:48;9.10;74.10
66140;DHT22;52945;51.908;8.364;2023-04-25T05:00:49;9.10;74.00
66140;DHT22;52945;51.908;8.364;2023-04-25T05:03:50;9.00;73.70
66140;DHT22;52945;51.908;8.364;2023-04-25T05:06:51;9.10;73.60
66140;DHT22;52945;51.908;8.364;2023-04-25T05:09:51;9.00;73.30
66140;DHT22;52945;51.908;8.364;2023-04-25T05:12:52;9.10;73.50
66140;DHT22;52945;51.908;8.364;2023-04-25T05:15:53;9.00;73.00
66140;DHT22;52945;51.908;8.364;2023-04-25T05:18:53;9.10;72.80
66140;DHT22;52945;51.908;8.364;2023-04-25T05:21:54;9.00;72.90
66140;DHT22;52945;51.908;8.364;2023-04-25T05:24:55;9.00;72.90
66140;DHT22;52945;51.908;8.364;2023-04-25T05:27:55;9.10;72.80
66140;DHT22;52945;51.908;8.364;2023-04-25T05:30:57;9.10;72.90
66140;DHT22;52945;51.908;8.364;2023-04-25T05:33:58;9.10;72.60
66140;DHT22;52945;51.908;8.364;2023-04-25T05:36:58;9.10;72.60
66140;DHT22;52945;51.908;8.364;2023-04-25T05:39:59;9.10;72.60
66140;DHT22;52945;51.908;8.364;2023-04-25T05:43:00;9.10;72.70
66140;DHT22;52945;51.908;8.364;2023-04-25T05:46:00;9.10;72.70
66140;DHT22;52945;51.908;8.364;2023-04-25T05:49:01;9.20;72.30
66140;DHT22;52945;51.908;8.364;2023-04-25T05:52:02;9.10;72.40
66140;DHT22;52945;51.908;8.364;2023-04-25T05:55:03;9.20;72.30
66140;DHT22;52945;51.908;8.364;2023-04-25T05:58:05;9.10;72.10
66140;DHT22;52945;51.908;8.364;2023-04-25T06:01:07;9.20;72.10
66140;DHT22;52945;51.908;8.364;2023-04-25T06:04:07;9.20;71.80
66140;DHT22;52945;51.908;8.364;2023-04-25T06:07:08;9.20;71.60
66140;DHT22;52945;51.908;8.364;2023-04-25T06:10:10;9.20;71.20
66140;DHT22;52945;51.908;8.364;2023-04-25T06:13:10;9.20;71.50
66140;DHT22;52945;51.908;8.364;2023-04-25T06:16:11;9.20;71.70
66140;DHT22;52945;51.908;8.364;2023-04-25T06:19:11;9.30;71.70
66140;DHT22;52945;51.908;8.364;2023-04-25T06:22:12;9.30;70.90
66140;DHT22;52945;51.908;8.364;2023-04-25T06:25:12;9.30;70.60
66140;DHT22;52945;51.908;8.364;2023-04-25T06:28:13;9.30;70.60
66140;DHT22;52945;51.908;8.364;2023-04-25T06:31:14;9.40;70.00
66140;DHT22;52945;51.908;8.364;2023-04-25T06:34:15;9.50;69.70
66140;DHT22;52945;51.908;8.364;2023-04-25T06:37:15;9.50;69.30
66140;DHT22;52945;51.908;8.364;2023-04-25T06:40:16;9.40;68.70
66140;DHT22;52945;51.908;8.364;2023-04-25T06:43:17;9.40;68.30
66140;DHT22;52945;51.908;8.364;2023-04-25T06:46:18;9.60;68.60
66140;DHT22;52945;51.908;8.364;2023-04-25T06:49:19;9.50;68.40
66140;DHT22;52945;51.908;8.364;2023-04-25T06:52:19;9.60;68.40
66140;DHT22;52945;51.908;8.364;2023-04-25T06:55:20;9.60;68.10
66140;DHT22;52945;51.908;8.364;2023-04-25T06:58:21;9.70;67.80
66140;DHT22;52945;51.908;8.364;2023-04-25T07:01:21;9.70;67.90
66140;DHT22;52945;51.908;8.364;2023-04-25T07:04:22;9.70;66.40
66140;DHT22;52945;51.908;8.364;2023-04-25T07:07:22;9.70;66.40
66140;DHT22;52945;51.908;8.364;2023-04-25T07:10:23;9.80;66.10
66140;DHT22;52945;51.908;8.364;2023-04-25T07:13:23;9.70;64.80
66140;DHT22;52945;51.908;8.364;2023-04-25T07:16:24;9.80;64.90
66140;DHT22;52945;51.908;8.364;2023-04-25T07:19:25;9.80;64.40
66140;DHT22;52945;51.908;8.364;2023-04-25T07:22:26;9.80;64.20
66140;DHT22;52945;51.908;8.364;2023-04-25T07:25:27;9.80;64.30
66140;DHT22;52945;51.908;8.364;2023-04-25T07:28:28;9.80;64.10
66140;DHT22;52945;51.908;8.364;2023-04-25T07:31:28;9.90;64.40
66140;DHT22;52945;51.908;8.364;2023-04-25T07:34:29;10.00;63.60
66140;DHT22;52945;51.908;8.364;2023-04-25T07:37:30;10.00;63.90
66140;DHT22;52945;51.908;8.364;2023-04-25T07:40:31;10.10;63.20
66140;DHT22;52945;51.908;8.364;2023-04-25T07:43:31;10.00;63.00
66140;DHT22;52945;51.908;8.364;2023-04-25T07:46:32;10.10;63.30
66140;DHT22;52945;51.908;8.364;2023-04-25T07:49:36;10.20;63.20
66140;DHT22;52945;51.908;8.364;2023-04-25T07:52:37;10.20;62.80
66140;DHT22;52945;51.908;8.364;2023-04-25T07:55:37;10.20;61.10
66140;DHT22;52945;51.908;8.364;2023-04-25T07:58:40;10.20;60.50
66140;DHT22;52945;51.908;8.364;2023-04-25T08:01:40;10.30;60.00
66140;DHT22;52945;51.908;8.364;2023-04-25T08:04:41;10.30;59.10
66140;DHT22;52945;51.908;8.364;2023-04-25T08:07:42;10.30;58.90
66140;DHT22;52945;51.908;8.364;2023-04-25T08:10:43;10.40;58.50
66140;DHT22;52945;51.908;8.364;2023-04-25T08:13:44;10.50;58.60
66140;DHT22;52945;51.908;8.364;2023-04-25T08:16:45;10.50;58.10
66140;DHT22;52945;51.908;8.364;2023-04-25T08:19:45;10.50;58.30
66140;DHT22;52945;51.908;8.364;2023-04-25T08:22:46;10.60;57.90
66140;DHT22;52945;51.908;8.364;2023-04-25T08:25:48;10.70;57.40
66140;DHT22;52945;51.908;8.364;2023-04-25T08:28:49;10.70;56.10
66140;DHT22;52945;51.908;8.364;2023-04-25T08:31:50;10.70;56.00
66140;DHT22;52945;51.908;8.364;2023-04-25T08:34:51;10.80;54.70
66140;DHT22;52945;51.908;8.364;2023-04-25T08:37:54;10.80;53.70
66140;DHT22;52945;51.908;8.364;2023-04-25T08:40:56;11.10;53.80
66140;DHT22;52945;51.908;8.364;2023-04-25T08:44:00;11.10;52.80
66140;DHT22;52945;51.908;8.364;2023-04-25T08:47:02;11.20;52.80
66140;DHT22;52945;51.908;8.364;2023-04-25T08:50:04;11.20;51.50
66140;DHT22;52945;51.908;8.364;2023-04-25T08:53:08;11.20;51.70
66140;DHT22;52945;51.908;8.364;2023-04-25T08:56:10;11.20;51.60
66140;DHT22;52945;51.908;8.364;2023-04-25T08:59:13;11.30;50.60
66140;DHT22;52945;51.908;8.364;2023-04-25T09:02:14;11.40;51.00
66140;DHT22;52945;51.908;8.364;2023-04-25T09:05:16;11.30;51.00
66140;DHT22;52945;51.908;8.364;2023-04-25T09:08:17;11.40;50.50
66140;DHT22;52945;51.908;8.364;2023-04-25T09:11:18;11.60;50.10
66140;DHT22;52945;51.908;8.364;2023-04-25T09:14:20;11.70;49.20
66140;DHT22;52945;51.908;8.364;2023-04-25T09:17:21;11.90;49.00
66140;DHT22;52945;51.908;8.364;2023-04-25T09:20:22;12.00;47.60
66140;DHT22;52945;51.908;8.364;2023-04-25T09:23:23;12.20;47.70
66140;DHT22;52945;51.908;8.364;2023-04-25T09:26:25;12.30;46.30
66140;DHT22;52945;51.908;8.364;2023-04-25T09:29:30;12.40;45.00
66140;DHT22;52945;51.908;8.364;2023-04-25T09:32:31;12.60;45.10
66140;DHT22;52945;51.908;8.364;2023-04-25T09:35:36;12.70;44.80
66140;DHT22;52945;51.908;8.364;2023-04-25T09:38:42;12.90;43.30
66140;DHT22;52945;51.908;8.364;2023-04-25T09:41:43;12.90;43.50
66140;DHT22;52945;51.908;8.364;2023-04-25T09:44:45;13.10;43.70
66140;DHT22;52945;51.908;8.364;2023-04-25T09:47:46;13.20;43.30
66140;DHT22;52945;51.908;8.364;2023-04-25T09:51:12;13.30;41.60
66140;DHT22;52945;51.908;8.364;2023-04-25T09:54:15;13.50;40.10
66140;DHT22;52945;51.908;8.364;2023-04-25T09:57:19;13.40;39.90
66140;DHT22;52945;51.908;8.364;2023-04-25T10:00:21;13.40;40.90
66140;DHT22;52945;51.908;8.364;2023-04-25T10:03:24;13.20;41.10
66140;DHT22;52945;51.908;8.364;2023-04-25T10:06:26;13.20;42.60
66140;DHT22;52945;51.908;8.364;2023-04-25T10:09:29;13.10;41.10
66140;DHT22;52945;51.908;8.364;2023-04-25T10:12:33;13.00;41.80
66140;DHT22;52945;51.908;8.364;2023-04-25T10:15:34;12.80;42.30
66140;DHT22;52945;51.908;8.364;2023-04-25T10:18:35;12.70;43.30
66140;DHT22;52945;51.908;8.364;2023-04-25T10:21:51;12.70;44.00
66140;DHT22;52945;51.908;8.364;2023-04-25T10:24:52;12.70;44.00
66140;DHT22;52945;51.908;8.364;2023-04-25T10:27:53;12.60;43.40
66140;DHT22;52945;51.908;8.364;2023-04-25T10:30:58;12.50;43.40
66140;DHT22;52945;51.908;8.364;2023-04-25T10:34:02;12.50;44.10
66140;DHT22;52945;51.908;8.364;2023-04-25T10:37:02;12.50;43.80
66140;DHT22;52945;51.908;8.364;2023-04-25T10:40:10;12.60;43.00
66140;DHT22;52945;51.908;8.364;2023-04-25T10:43:33;12.50;42.70
66140;DHT22;52945;51.908;8.364;2023-04-25T10:46:35;12.50;42.30
66140;DHT22;52945;51.908;8.364;2023-04-25T10:49:38;12.50;42.80
66140;DHT22;52945;51.908;8.364;2023-04-25T10:52:41;12.60;43.70
66140;DHT22;52945;51.908;8.364;2023-04-25T10:55:51;12.80;44.00
66140;DHT22;52945;51.908;8.364;2023-04-25T10:58:52;13.10;43.80
66140;DHT22;52945;51.908;8.364;2023-04-25T11:02:11;13.40;42.60
66140;DHT22;52945;51.908;8.364;2023-04-25T11:05:31;13.50;41.50
66140;DHT22;52945;51.908;8.364;2023-04-25T11:08:48;13.60;42.40
66140;DHT22;52945;51.908;8.364;2023-04-25T11:11:56;13.50;41.20
66140;DHT22;52945;51.908;8.364;2023-04-25T11:15:05;13.50;40.40
66140;DHT22;52945;51.908;8.364;2023-04-25T11:18:06;13.60;41.40
66140;DHT22;52945;51.908;8.364;2023-04-25T11:21:06;13.60;41.20
66140;DHT22;52945;51.908;8.364;2023-04-25T11:24:07;13.50;41.10
66140;DHT22;52945;51.908;8.364;2023-04-25T11:27:08;13.40;42.30
66140;DHT22;52945;51.908;8.364;2023-04-25T11:30:13;13.20;41.90
66140;DHT22;52945;51.908;8.364;2023-04-25T11:33:16;13.30;42.70
66140;DHT22;52945;51.908;8.364;2023-04-25T11:36:16;13.30;41.00
66140;DHT22;52945;51.908;8.364;2023-04-25T11:39:18;13.40;40.70
66140;DHT22;52945;51.908;8.364;2023-04-25T11:42:19;13.40;39.70
66140;DHT22;52945;51.908;8.364;2023-04-25T11:45:20;13.40;40.30
66140;DHT22;52945;51.908;8.364;2023-04-25T11:48:21;13.40;40.00
66140;DHT22;52945;51.908;8.364;2023-04-25T11:51:21;13.30;39.70
66140;DHT22;52945;51.908;8.364;2023-04-25T11:54:22;13.30;40.50
66140;DHT22;52945;51.908;8.364;2023-04-25T11:57:23;13.30;41.50
66140;DHT22;52945;51.908;8.364;2023-04-25T12:00:24;13.20;40.90
66140;DHT22;52945;51.908;8.364;2023-04-25T12:03:25;13.20;40.90
66140;DHT22;52945;51.908;8.364;2023-04-25T12:06:31;13.20;41.40
66140;DHT22;52945;51.908;8.364;2023-04-25T12:09:33;13.20;40.90
66140;DHT22;52945;51.908;8.364;2023-04-25T12:12:34;13.20;40.90
66140;DHT22;52945;51.908;8.364;2023-04-25T12:15:35;13.30;41.50
66140;DHT22;52945;51.908;8.364;2023-04-25T12:18:35;13.50;40.50
66140;DHT22;52945;51.908;8.364;2023-04-25T12:21:36;13.80;40.80
66140;DHT22;52945;51.908;8.364;2023-04-25T12:24:37;13.90;39.20
66140;DHT22;52945;51.908;8.364;2023-04-25T12:27:37;13.80;38.20
66140;DHT22;52945;51.908;8.364;2023-04-25T12:33:56;13.70;39.60
66140;DHT22;52945;51.908;8.364;2023-04-25T12:36:57;13.80;39.10
66140;DHT22;52945;51.908;8.364;2023-04-25T12:39:58;13.90;38.90
66140;DHT22;52945;51.908;8.364;2023-04-25T12:42:58;13.90;38.60
66140;DHT22;52945;51.908;8.364;2023-04-25T12:45:59;13.90;38.50
66140;DHT22;52945;51.908;8.364;2023-04-25T12:49:00;14.10;39.00
66140;DHT22;52945;51.908;8.364;2023-04-25T12:52:00;14.20;38.90
66140;DHT22;52945;51.908;8.364;2023-04-25T12:55:01;14.30;38.40
66140;DHT22;52945;51.908;8.364;2023-04-25T12:58:01;14.40;38.50
66140;DHT22;52945;51.908;8.364;2023-04-25T13:01:03;14.40;38.20
66140;DHT22;52945;51.908;8.364;2023-04-25T13:04:04;14.60;38.60
66140;DHT22;52945;51.908;8.364;2023-04-25T13:07:04;14.50;38.10
66140;DHT22;52945;51.908;8.364;2023-04-25T13:10:06;14.60;38.80
66140;DHT22;52945;51.908;8.364;2023-04-25T13:13:07;14.70;39.10
66140;DHT22;52945;51.908;8.364;2023-04-25T13:16:08;14.80;38.80
66140;DHT22;52945;51.908;8.364;2023-04-25T13:19:09;14.80;38.20
66140;DHT22;52945;51.908;8.364;2023-04-25T13:22:11;14.80;37.50
66140;DHT22;52945;51.908;8.364;2023-04-25T13:25:12;14.80;38.20
66140;DHT22;52945;51.908;8.364;2023-04-25T13:28:13;14.90;37.10
66140;DHT22;52945;51.908;8.364;2023-04-25T13:31:15;14.90;36.20
66140;DHT22;52945;51.908;8.364;2023-04-25T13:34:15;14.80;39.40
66140;DHT22;52945;51.908;8.364;2023-04-25T13:37:16;14.70;40.60
66140;DHT22;52945;51.908;8.364;2023-04-25T13:40:16;14.60;40.20
66140;DHT22;52945;51.908;8.364;2023-04-25T13:43:18;14.40;40.60
66140;DHT22;52945;51.908;8.364;2023-04-25T13:46:18;14.20;40.20
66140;DHT22;52945;51.908;8.364;2023-04-25T13:49:19;14.10;41.10
66140;DHT22;52945;51.908;8.364;2023-04-25T13:52:20;14.10;41.50
66140;DHT22;52945;51.908;8.364;2023-04-25T13:55:20;14.20;41.30
66140;DHT22;52945;51.908;8.364;2023-04-25T13:58:21;14.20;40.40
66140;DHT22;52945;51.908;8.364;2023-04-25T14:01:22;14.30;40.30
66140;DHT22;52945;51.908;8.364;2023-04-25T14:04:23;14.40;39.90
66140;DHT22;52945;51.908;8.364;2023-04-25T14:07:23;14.20;39.50
66140;DHT22;52945;51.908;8.364;2023-04-25T14:10:25;14.20;38.90
66140;DHT22;52945;51.908;8.364;2023-04-25T14:13:25;14.00;39.80
66140;DHT22;52945;51.908;8.364;2023-04-25T14:16:26;14.00;40.40
66140;DHT22;52945;51.908;8.364;2023-04-25T14:19:26;13.90;40.90
66140;DHT22;52945;51.908;8.364;2023-04-25T14:22:29;13.90;41.20
66140;DHT22;52945;51.908;8.364;2023-04-25T14:25:30;13.70;41.60
66140;DHT22;52945;51.908;8.364;2023-04-25T14:28:31;13.70;42.70
66140;DHT22;52945;51.908;8.364;2023-04-25T14:31:32;13.50;45.70
66140;DHT22;52945;51.908;8.364;2023-04-25T14:34:33;13.30;48.70
66140;DHT22;52945;51.908;8.364;2023-04-25T14:37:33;13.00;52.60
66140;DHT22;52945;51.908;8.364;2023-04-25T14:40:34;12.70;54.30
66140;DHT22;52945;51.908;8.364;2023-04-25T14:43:34;12.50;53.40
66140;DHT22;52945;51.908;8.364;2023-04-25T14:46:36;12.40;53.50
66140;DHT22;52945;51.908;8.364;2023-04-25T14:49:37;12.20;54.00
66140;DHT22;52945;51.908;8.364;2023-04-25T14:52:37;12.00;54.70
66140;DHT22;52945;51.908;8.364;2023-04-25T14:55:38;12.00;54.60
66140;DHT22;52945;51.908;8.364;2023-04-25T14:58:40;11.90;55.00
66140;DHT22;52945;51.908;8.364;2023-04-25T15:01:41;11.80;56.00
66140;DHT22;52945;51.908;8.364;2023-04-25T15:04:41;11.80;54.40
66140;DHT22;52945;51.908;8.364;2023-04-25T15:07:42;11.80;54.40
66140;DHT22;52945;51.908;8.364;2023-04-25T15:10:43;11.80;54.20
66140;DHT22;52945;51.908;8.364;2023-04-25T15:13:45;11.80;54.50
66140;DHT22;52945;51.908;8.364;2023-04-25T15:16:45;11.90;55.30
66140;DHT22;52945;51.908;8.364;2023-04-25T15:19:46;12.00;56.50
66140;DHT22;52945;51.908;8.364;2023-04-25T15:22:47;12.20;55.30
66140;DHT22;52945;51.908;8.364;2023-04-25T15:25:50;12.30;55.20
66140;DHT22;52945;51.908;8.364;2023-04-25T15:28:51;12.50;55.50
66140;DHT22;52945;51.908;8.364;2023-04-25T15:31:53;12.70;53.10
66140;DHT22;52945;51.908;8.364;2023-04-25T15:34:53;12.90;52.30
66140;DHT22;52945;51.908;8.364;2023-04-25T15:37:54;13.10;50.70
66140;DHT22;52945;51.908;8.364;2023-04-25T15:40:54;13.10;49.20
66140;DHT22;52945;51.908;8.364;2023-04-25T15:43:55;13.20;49.60
66140;DHT22;52945;51.908;8.364;2023-04-25T15:46:56;13.20;48.90
66140;DHT22;52945;51.908;8.364;2023-04-25T15:49:56;13.10;48.70
66140;DHT22;52945;51.908;8.364;2023-04-25T15:52:57;13.00;48.30
66140;DHT22;52945;51.908;8.364;2023-04-25T15:55:57;12.80;48.60
66140;DHT22;52945;51.908;8.364;2023-04-25T15:58:58;12.60;51.60
66140;DHT22;52945;51.908;8.364;2023-04-25T16:01:59;12.40;55.10
66140;DHT22;52945;51.908;8.364;2023-04-25T16:04:59;12.30;56.80
66140;DHT22;52945;51.908;8.364;2023-04-25T16:08:00;12.20;58.70
66140;DHT22;52945;51.908;8.364;2023-04-25T16:11:01;12.10;58.40
66140;DHT22;52945;51.908;8.364;2023-04-25T16:16:32;11.10;60.10
66140;DHT22;52945;51.908;8.364;2023-04-25T16:19:32;11.80;58.80
66140;DHT22;52945;51.908;8.364;2023-04-25T16:22:33;11.80;59.00
66140;DHT22;52945;51.908;8.364;2023-04-25T16:25:34;11.80;56.90
66140;DHT22;52945;51.908;8.364;2023-04-25T16:28:34;11.80;56.00
66140;DHT22;52945;51.908;8.364;2023-04-25T16:31:35;11.80;57.50
66140;DHT22;52945;51.908;8.364;2023-04-25T16:34:36;11.80;57.70
66140;DHT22;52945;51.908;8.364;2023-04-25T16:37:36;11.80;57.30
66140;DHT22;52945;51.908;8.364;2023-04-25T16:40:37;11.80;56.20
66140;DHT22;52945;51.908;8.364;2023-04-25T16:43:38;11.80;57.30
66140;DHT22;52945;51.908;8.364;2023-04-25T16:46:41;11.90;57.30
66140;DHT22;52945;51.908;8.364;2023-04-25T16:49:42;11.90;57.60
66140;DHT22;52945;51.908;8.364;2023-04-25T16:52:43;11.90;57.00
66140;DHT22;52945;51.908;8.364;2023-04-25T16:55:43;11.90;57.50
66140;DHT22;52945;51.908;8.364;2023-04-25T16:58:44;11.90;55.60
66140;DHT22;52945;51.908;8.364;2023-04-25T17:01:45;12.00;56.70
66140;DHT22;52945;51.908;8.364;2023-04-25T17:04:45;12.00;56.90
66140;DHT22;52945;51.908;8.364;2023-04-25T17:07:46;11.90;53.80
66140;DHT22;52945;51.908;8.364;2023-04-25T17:10:48;12.00;53.10
66140;DHT22;52945;51.908;8.364;2023-04-25T17:13:49;11.90;52.70
66140;DHT22;52945;51.908;8.364;2023-04-25T17:16:50;11.90;51.60
66140;DHT22;52945;51.908;8.364;2023-04-25T17:19:51;11.90;49.00
66140;DHT22;52945;51.908;8.364;2023-04-25T17:22:52;11.90;48.80
66140;DHT22;52945;51.908;8.364;2023-04-25T17:25:53;11.90;49.20
66140;DHT22;52945;51.908;8.364;2023-04-25T17:28:54;11.90;47.80
66140;DHT22;52945;51.908;8.364;2023-04-25T17:31:54;11.90;46.20
66140;DHT22;52945;51.908;8.364;2023-04-25T17:34:56;11.80;46.30
66140;DHT22;52945;51.908;8.364;2023-04-25T17:37:57;11.80;46.70
66140;DHT22;52945;51.908;8.364;2023-04-25T17:40:58;11.80;46.60
66140;DHT22;52945;51.908;8.364;2023-04-25T17:43:58;11.80;46.90
66140;DHT22;52945;51.908;8.364;2023-04-25T17:46:59;11.70;46.40
66140;DHT22;52945;51.908;8.364;2023-04-25T17:50:03;11.70;46.80
66140;DHT22;52945;51.908;8.364;2023-04-25T17:53:04;11.60;46.60
66140;DHT22;52945;51.908;8.364;2023-04-25T17:56:04;11.60;47.10
66140;DHT22;52945;51.908;8.364;2023-04-25T17:59:06;11.60;46.70
66140;DHT22;52945;51.908;8.364;2023-04-25T18:02:07;11.60;47.00
66140;DHT22;52945;51.908;8.364;2023-04-25T18:05:08;11.50;47.10
66140;DHT22;52945;51.908;8.364;2023-04-25T18:08:09;11.40;46.90
66140;DHT22;52945;51.908;8.364;2023-04-25T18:11:09;11.50;47.80
66140;DHT22;52945;51.908;8.364;2023-04-25T18:14:12;11.30;47.50
66140;DHT22;52945;51.908;8.364;2023-04-25T18:17:16;11.30;47.90
66140;DHT22;52945;51.908;8.364;2023-04-25T18:20:17;11.30;48.50
66140;DHT22;52945;51.908;8.364;2023-04-25T18:23:18;11.20;48.10
66140;DHT22;52945;51.908;8.364;2023-04-25T18:26:19;11.10;48.70
66140;DHT22;52945;51.908;8.364;2023-04-25T18:29:20;10.90;48.60
66140;DHT22;52945;51.908;8.364;2023-04-25T18:32:51;10.80;49.20
66140;DHT22;52945;51.908;8.364;2023-04-25T18:35:51;10.80;49.80
66140;DHT22;52945;51.908;8.364;2023-04-25T18:38:52;10.70;50.20
66140;DHT22;52945;51.908;8.364;2023-04-25T18:41:54;10.70;50.80
66140;DHT22;52945;51.908;8.364;2023-04-25T18:44:57;10.70;51.30
66140;DHT22;52945;51.908;8.364;2023-04-25T18:47:58;10.80;51.30
66140;DHT22;52945;51.908;8.364;2023-04-25T18:51:00;10.70;51.40
66140;DHT22;52945;51.908;8.364;2023-04-25T18:54:01;10.70;51.40
66140;DHT22;52945;51.908;8.364;2023-04-25T18:57:04;10.70;51.80
66140;DHT22;52945;51.908;8.364;2023-04-25T19:00:06;10.60;51.80
66140;DHT22;52945;51.908;8.364;2023-04-25T19:03:06;10.70;51.90
66140;DHT22;52945;51.908;8.364;2023-04-25T19:06:07;10.60;52.10
66140;DHT22;52945;51.908;8.364;2023-04-25T19:09:07;10.60;52.30
66140;DHT22;52945;51.908;8.364;2023-04-25T19:12:09;10.60;52.10
66140;DHT22;52945;51.908;8.364;2023-04-25T19:15:10;10.60;51.70
66140;DHT22;52945;51.908;8.364;2023-04-25T19:18:11;10.50;51.90
66140;DHT22;52945;51.908;8.364;2023-04-25T19:21:12;10.40;51.90